Time;durP1;ratioP1;P1;durP2;ratioP2;P2;SDS_P1;SDS_P2;PMS_P1;PMS_P2;Temp;Humidity;BMP_temperature;BMP_pressure;BME280_temperature;BME280_humidity;BME280_pressure;Samples;Min_cycle;Max_cycle;Signal;HPM_P1;HPM_P2
2021/09/14 00:00:49;;;;;;;12.83;11.53;;;13.90;99.90;;;;;;4344466;33;20140;-64
2021/09/14 00:03:16;;;;;;;16.03;11.83;;;13.90;99.90;;;;;;4344719;33;20141;-67
2021/09/14 00:05:43;;;;;;;11.07;10.07;;;13.90;99.90;;;;;;4345035;33;20156;-65
2021/09/14 00:08:10;;;;;;;13.00;11.80;;;13.90;99.90;;;;;;4344028;33;20227;-65
2021/09/14 00:10:39;;;;;;;12.63;11.33;;;13.90;99.90;;;;;;4337938;33;20245;-65
2021/09/14 00:13:09;;;;;;;14.90;11.50;;;13.90;99.90;;;;;;4344497;33;20469;-65
2021/09/14 00:15:36;;;;;;;12.17;10.87;;;13.80;99.90;;;;;;4344294;33;21147;-62
2021/09/14 00:18:04;;;;;;;13.57;12.27;;;13.90;99.90;;;;;;4344263;33;20156;-65
2021/09/14 00:20:34;;;;;;;11.77;10.57;;;13.90;99.90;;;;;;4344060;33;20155;-65
2021/09/14 00:23:04;;;;;;;12.40;10.87;;;13.90;99.90;;;;;;4344176;33;20129;-67
2021/09/14 00:25:31;;;;;;;13.40;12.10;;;13.90;99.90;;;;;;4344039;33;20190;-65
2021/09/14 00:28:02;;;;;;;12.93;11.57;;;13.90;99.90;;;;;;4344706;32;20155;-64
2021/09/14 00:30:29;;;;;;;12.87;10.80;;;13.80;99.90;;;;;;4344894;33;20233;-65
2021/09/14 00:32:56;;;;;;;12.60;11.30;;;13.80;99.90;;;;;;4344913;33;20158;-65
2021/09/14 00:35:28;;;;;;;12.53;10.57;;;13.80;99.90;;;;;;4344882;32;20585;-64
2021/09/14 00:37:58;;;;;;;13.43;11.53;;;13.80;99.90;;;;;;4342641;33;20168;-64
2021/09/14 00:40:33;;;;;;;14.07;12.77;;;13.80;99.90;;;;;;4344148;33;20175;-63
2021/09/14 00:43:02;;;;;;;12.63;11.23;;;13.80;99.90;;;;;;4343029;33;20172;-67
2021/09/14 00:45:28;;;;;;;14.90;11.80;;;13.80;99.90;;;;;;4344579;33;20225;-68
2021/09/14 00:47:58;;;;;;;12.57;11.37;;;13.80;99.90;;;;;;4345386;33;20489;-63
2021/09/14 00:50:26;;;;;;;14.10;12.43;;;13.70;99.90;;;;;;4364057;32;20166;-65
2021/09/14 00:52:53;;;;;;;18.63;11.87;;;13.70;99.90;;;;;;4419442;32;20196;-65
2021/09/14 00:55:21;;;;;;;12.67;11.47;;;13.70;99.90;;;;;;4421063;32;20156;-65
2021/09/14 00:57:49;;;;;;;14.73;11.57;;;13.60;99.90;;;;;;4408916;32;20511;-64
2021/09/14 01:00:17;;;;;;;12.03;10.50;;;13.70;99.90;;;;;;4405831;32;20143;-65
2021/09/14 01:02:47;;;;;;;12.90;11.60;;;13.60;99.90;;;;;;4406387;32;20149;-68
2021/09/14 01:05:14;;;;;;;13.47;11.63;;;13.60;99.90;;;;;;4406256;32;20178;-65
2021/09/14 01:07:42;;;;;;;13.77;10.83;;;13.60;99.90;;;;;;4416986;32;20163;-65
2021/09/14 01:10:13;;;;;;;13.77;12.47;;;13.60;99.90;;;;;;4420144;32;20184;-65
2021/09/14 01:12:41;;;;;;;14.20;12.73;;;13.60;99.90;;;;;;4419860;32;20162;-68
2021/09/14 01:15:09;;;;;;;15.67;12.70;;;13.50;99.90;;;;;;4418153;32;20157;-65
2021/09/14 01:17:37;;;;;;;13.20;12.00;;;13.50;99.90;;;;;;4405849;32;20475;-65
2021/09/14 01:20:06;;;;;;;14.53;12.33;;;13.60;99.90;;;;;;4407218;32;20181;-67
2021/09/14 01:22:35;;;;;;;14.87;12.20;;;13.50;99.90;;;;;;4408490;32;20177;-65
2021/09/14 01:25:03;;;;;;;13.13;11.77;;;13.60;99.90;;;;;;4416065;32;20159;-67
2021/09/14 01:27:32;;;;;;;15.13;12.37;;;13.60;99.90;;;;;;4416733;32;20151;-65
2021/09/14 01:30:13;;;;;;;14.60;12.47;;;13.60;99.90;;;;;;4419073;32;20147;-66
2021/09/14 01:32:42;;;;;;;18.53;13.77;;;13.60;99.90;;;;;;4420368;32;20135;-63
2021/09/14 01:35:11;;;;;;;15.60;13.07;;;13.60;99.90;;;;;;4414921;32;20170;-66
2021/09/14 01:37:42;;;;;;;14.33;12.83;;;13.70;99.90;;;;;;4418468;32;20649;-66
2021/09/14 01:40:13;;;;;;;16.03;13.43;;;13.70;99.90;;;;;;4416357;32;20161;-64
2021/09/14 01:42:40;;;;;;;15.70;13.80;;;13.70;99.90;;;;;;4412467;32;20144;-65
2021/09/14 01:45:09;;;;;;;16.40;14.27;;;13.70;99.90;;;;;;4414492;32;20149;-65
2021/09/14 01:47:49;;;;;;;15.30;13.73;;;13.80;99.90;;;;;;4416373;32;20198;-67
2021/09/14 01:50:17;;;;;;;15.47;13.13;;;13.80;99.90;;;;;;4413211;32;20220;-64
2021/09/14 01:52:48;;;;;;;14.70;13.13;;;13.90;99.90;;;;;;4413814;32;20241;-64
2021/09/14 01:55:18;;;;;;;13.37;11.97;;;14.00;99.90;;;;;;4413659;32;20663;-64
2021/09/14 01:57:45;;;;;;;14.87;13.27;;;14.00;99.90;;;;;;4413996;32;20166;-65
2021/09/14 02:00:16;;;;;;;13.30;11.83;;;14.00;99.90;;;;;;4414049;32;20201;-64
2021/09/14 02:02:58;;;;;;;18.10;13.03;;;14.00;99.90;;;;;;4407151;32;20255;-67
2021/09/14 02:05:46;;;;;;;15.13;12.57;;;14.10;99.90;;;;;;4405270;32;20140;-65
2021/09/14 02:08:40;;;;;;;15.70;14.30;;;14.10;99.90;;;;;;4423885;32;20177;-64
2021/09/14 02:38:42;;;;;;;16.27;13.27;;;14.10;99.90;;;;;;4342258;33;20599;-64
2021/09/14 02:44:18;;;;;;;14.77;13.37;;;14.10;99.90;;;;;;4302643;33;20193;-64
2021/09/14 03:00:39;;;;;;;16.27;13.60;;;14.10;99.90;;;;;;4193576;34;20185;-63
2021/09/14 03:03:12;;;;;;;17.67;15.10;;;14.00;99.90;;;;;;4191508;34;20789;-63
2021/09/14 03:05:48;;;;;;;16.23;14.53;;;14.00;99.90;;;;;;4217680;34;20655;-63
2021/09/14 03:08:16;;;;;;;15.73;13.97;;;14.00;99.90;;;;;;4225147;34;20689;-64
2021/09/14 03:10:45;;;;;;;14.43;12.93;;;14.00;99.90;;;;;;4263349;33;20189;-67
2021/09/14 03:13:13;;;;;;;16.67;14.87;;;14.00;99.90;;;;;;4294635;33;20158;-63
2021/09/14 03:15:42;;;;;;;19.33;15.27;;;14.00;99.90;;;;;;4298022;33;20153;-64
2021/09/14 03:18:09;;;;;;;16.30;13.07;;;13.90;99.90;;;;;;4285650;33;20151;-65
2021/09/14 03:20:39;;;;;;;18.97;14.77;;;13.90;99.90;;;;;;4316087;33;20210;-64
2021/09/14 03:23:06;;;;;;;17.03;14.00;;;13.90;99.90;;;;;;4360065;33;20149;-65
2021/09/14 03:25:35;;;;;;;18.20;14.77;;;13.80;99.90;;;;;;4317631;32;20165;-65
2021/09/14 03:28:01;;;;;;;15.37;13.83;;;13.90;99.90;;;;;;4306389;33;20228;-62
2021/09/14 03:30:30;;;;;;;17.53;14.77;;;13.90;99.90;;;;;;4325213;33;20164;-65
2021/09/14 03:32:56;;;;;;;15.43;13.07;;;13.90;99.90;;;;;;4332015;33;20142;-63
2021/09/14 03:35:23;;;;;;;18.40;14.43;;;13.90;99.90;;;;;;4329983;33;20225;-63
2021/09/14 03:37:53;;;;;;;16.23;14.27;;;13.80;99.90;;;;;;4330504;33;20145;-62
2021/09/14 03:40:23;;;;;;;14.63;13.13;;;13.80;99.90;;;;;;4330055;33;20161;-63
2021/09/14 03:42:51;;;;;;;19.50;14.97;;;13.60;99.90;;;;;;4331443;33;20151;-63
2021/09/14 03:45:18;;;;;;;17.77;15.70;;;13.60;99.90;;;;;;4329069;33;20168;-66
2021/09/14 03:47:46;;;;;;;17.50;15.77;;;13.60;99.90;;;;;;4330273;33;20169;-65
2021/09/14 03:50:16;;;;;;;18.47;15.03;;;13.50;99.90;;;;;;4346815;32;20174;-64
2021/09/14 03:52:45;;;;;;;16.07;14.00;;;13.50;99.90;;;;;;4423590;32;20467;-64
2021/09/14 03:55:12;;;;;;;16.87;15.17;;;13.50;99.90;;;;;;4421972;32;20177;-66
2021/09/14 03:57:42;;;;;;;17.57;15.47;;;13.40;99.90;;;;;;4422094;32;20144;-64
2021/09/14 04:00:10;;;;;;;17.10;15.30;;;13.40;99.90;;;;;;4420204;32;20167;-64
2021/09/14 04:02:43;;;;;;;18.90;15.97;;;13.30;99.90;;;;;;4422433;32;20143;-67
2021/09/14 04:05:39;;;;;;;20.43;16.50;;;13.30;99.90;;;;;;4421130;32;20147;-64
2021/09/14 04:10:56;;;;;;;23.43;18.00;;;13.20;99.90;;;;;;4415127;32;20616;-64
2021/09/14 04:13:24;;;;;;;19.63;17.57;;;13.10;99.90;;;;;;4407869;32;20469;-64
2021/09/14 04:15:52;;;;;;;20.43;16.10;;;13.10;99.90;;;;;;4415858;32;20220;-64
2021/09/14 04:18:19;;;;;;;19.60;15.97;;;13.00;99.90;;;;;;4422952;32;20162;-63
2021/09/14 04:20:51;;;;;;;19.47;16.50;;;13.00;99.90;;;;;;4412022;32;20153;-66
2021/09/14 04:23:17;;;;;;;19.47;15.87;;;13.00;99.90;;;;;;4405937;32;20603;-63
2021/09/14 04:25:44;;;;;;;17.57;15.07;;;13.00;99.90;;;;;;4406166;32;20194;-64
2021/09/14 04:28:11;;;;;;;18.83;15.37;;;13.00;99.90;;;;;;4406668;32;20152;-64
2021/09/14 04:30:39;;;;;;;19.57;15.97;;;13.00;99.90;;;;;;4412050;32;20166;-65
2021/09/14 04:33:06;;;;;;;18.70;15.30;;;13.00;99.90;;;;;;4421503;32;20151;-64
2021/09/14 04:35:33;;;;;;;21.83;17.80;;;13.00;99.90;;;;;;4409858;32;20151;-64
2021/09/14 04:38:02;;;;;;;21.03;16.63;;;13.00;99.90;;;;;;4407173;32;20148;-65
2021/09/14 04:40:29;;;;;;;18.40;15.63;;;13.00;99.90;;;;;;4407059;32;20487;-65
2021/09/14 04:42:57;;;;;;;18.57;16.67;;;13.00;99.90;;;;;;4406131;32;20144;-64
2021/09/14 04:45:24;;;;;;;18.40;15.43;;;13.00;99.90;;;;;;4415114;32;20222;-64
2021/09/14 04:47:53;;;;;;;20.40;16.47;;;12.90;99.90;;;;;;4418914;32;20179;-65
2021/09/14 04:50:20;;;;;;;19.43;17.33;;;12.90;99.90;;;;;;4419349;32;20205;-66
2021/09/14 04:52:47;;;;;;;20.03;17.50;;;13.00;99.90;;;;;;4422314;32;20139;-65
2021/09/14 04:55:15;;;;;;;18.43;16.20;;;12.90;99.90;;;;;;4413190;32;20184;-64
2021/09/14 04:57:42;;;;;;;19.07;16.93;;;12.90;99.90;;;;;;4409589;32;20222;-64
2021/09/14 05:00:11;;;;;;;21.70;17.33;;;12.90;99.90;;;;;;4406848;32;20182;-64
2021/09/14 05:02:38;;;;;;;22.40;17.90;;;12.90;99.90;;;;;;4405976;32;20140;-63
2021/09/14 05:05:06;;;;;;;20.27;17.20;;;12.90;99.90;;;;;;4413325;32;20191;-65
2021/09/14 05:07:33;;;;;;;22.87;17.17;;;12.80;99.90;;;;;;4406602;32;20217;-65
2021/09/14 05:10:01;;;;;;;23.10;18.93;;;12.80;99.90;;;;;;4405797;32;20140;-64
2021/09/14 05:12:29;;;;;;;20.27;17.03;;;12.80;99.90;;;;;;4413644;32;20143;-64
2021/09/14 05:14:56;;;;;;;22.53;17.60;;;12.80;99.90;;;;;;4409794;32;20174;-64
2021/09/14 05:17:23;;;;;;;25.03;17.97;;;12.80;99.90;;;;;;4407069;32;20286;-64
2021/09/14 05:19:51;;;;;;;19.17;16.50;;;12.80;99.90;;;;;;4411766;32;20155;-63
2021/09/14 05:22:20;;;;;;;20.27;17.07;;;12.80;99.90;;;;;;4412251;32;20166;-63
2021/09/14 05:24:53;;;;;;;21.40;17.67;;;12.80;99.90;;;;;;4413263;32;20211;-64
2021/09/14 05:27:19;;;;;;;24.73;18.63;;;12.80;99.90;;;;;;4412875;32;20508;-63
2021/09/14 05:29:47;;;;;;;24.47;19.13;;;12.90;99.90;;;;;;4411356;32;20159;-64
2021/09/14 05:32:17;;;;;;;20.70;18.43;;;12.90;99.90;;;;;;4410734;32;20152;-63
2021/09/14 05:34:44;;;;;;;23.23;20.53;;;12.90;99.90;;;;;;4412932;32;20249;-64
2021/09/14 05:37:11;;;;;;;26.23;21.00;;;12.90;99.90;;;;;;4411869;32;20564;-63
2021/09/14 05:39:37;;;;;;;21.27;18.90;;;13.00;99.90;;;;;;4407740;32;20223;-62
2021/09/14 05:42:07;;;;;;;27.10;21.17;;;13.00;99.90;;;;;;4420561;32;20644;-63
2021/09/14 05:44:35;;;;;;;18.60;16.43;;;13.10;99.90;;;;;;4414604;32;20208;-63
2021/09/14 05:47:04;;;;;;;22.20;18.30;;;13.20;99.90;;;;;;4419755;32;20160;-63
2021/09/14 05:49:31;;;;;;;22.43;17.53;;;13.30;99.90;;;;;;4411112;32;20222;-63
2021/09/14 05:51:58;;;;;;;19.93;17.80;;;13.40;99.90;;;;;;4350999;32;20169;-64
2021/09/14 05:54:25;;;;;;;22.77;19.10;;;13.50;99.90;;;;;;4344690;33;20153;-63
2021/09/14 05:56:52;;;;;;;21.00;17.87;;;13.50;99.90;;;;;;4343345;33;20220;-64
2021/09/14 05:59:19;;;;;;;22.63;17.93;;;13.60;99.90;;;;;;4342499;33;20153;-63
2021/09/14 06:01:46;;;;;;;21.27;17.10;;;13.70;99.90;;;;;;4344635;33;20203;-64
2021/09/14 06:04:14;;;;;;;22.73;17.27;;;13.70;99.90;;;;;;4344184;33;20172;-63
2021/09/14 06:06:41;;;;;;;24.67;17.70;;;13.80;99.90;;;;;;4343895;32;20236;-62
2021/09/14 06:09:09;;;;;;;20.83;17.60;;;13.90;99.90;;;;;;4343826;33;20172;-63
2021/09/14 06:11:36;;;;;;;24.77;17.27;;;13.90;99.90;;;;;;4337569;32;20205;-64
2021/09/14 06:14:04;;;;;;;18.93;17.03;;;14.00;99.90;;;;;;4343248;33;20187;-63
2021/09/14 06:16:31;;;;;;;22.43;17.23;;;14.10;99.90;;;;;;4344737;33;20166;-63
2021/09/14 06:18:58;;;;;;;22.40;18.63;;;14.10;99.90;;;;;;4345810;33;20238;-64
2021/09/14 06:21:26;;;;;;;21.13;18.83;;;14.20;99.90;;;;;;4345647;33;20179;-63
2021/09/14 06:23:53;;;;;;;23.03;18.47;;;14.30;99.90;;;;;;4345033;33;20176;-64
2021/09/14 06:26:20;;;;;;;19.07;17.03;;;14.20;99.90;;;;;;4344960;33;20514;-64
2021/09/14 06:28:47;;;;;;;25.00;18.47;;;14.30;99.90;;;;;;4345079;33;20199;-64
2021/09/14 06:31:14;;;;;;;21.60;17.17;;;14.30;99.90;;;;;;4342802;33;20234;-64
2021/09/14 06:33:41;;;;;;;27.30;18.47;;;14.40;99.90;;;;;;4342839;33;20160;-65
2021/09/14 06:36:11;;;;;;;21.93;18.23;;;14.40;99.90;;;;;;4345527;33;20182;-65
2021/09/14 06:38:40;;;;;;;21.80;17.93;;;14.40;99.90;;;;;;4346121;33;20150;-65
2021/09/14 06:41:07;;;;;;;21.20;18.33;;;14.50;99.90;;;;;;4346972;33;20478;-65
2021/09/14 06:43:34;;;;;;;23.43;18.10;;;14.50;99.90;;;;;;4345414;33;20152;-65
2021/09/14 06:46:01;;;;;;;18.97;16.13;;;14.60;99.90;;;;;;4345401;33;20176;-65
2021/09/14 06:48:28;;;;;;;19.50;17.50;;;14.60;99.90;;;;;;4345352;33;20145;-65
2021/09/14 06:50:56;;;;;;;20.97;17.30;;;14.70;99.90;;;;;;4345831;33;20171;-64
2021/09/14 06:53:23;;;;;;;19.43;17.33;;;14.80;99.90;;;;;;4345201;33;20186;-62
2021/09/14 06:55:51;;;;;;;21.00;18.37;;;14.80;99.90;;;;;;4358261;33;20580;-63
2021/09/14 06:58:18;;;;;;;23.03;18.60;;;14.90;99.90;;;;;;4360050;33;20145;-63
2021/09/14 07:00:48;;;;;;;22.47;18.20;;;14.90;99.90;;;;;;4361502;33;20560;-63
2021/09/14 07:03:16;;;;;;;22.40;18.50;;;14.90;99.90;;;;;;4360812;33;20157;-62
2021/09/14 07:05:43;;;;;;;20.30;18.10;;;14.90;99.90;;;;;;4361163;33;20198;-63
2021/09/14 07:08:10;;;;;;;23.03;17.60;;;14.90;99.90;;;;;;4360107;33;20141;-63
2021/09/14 07:10:37;;;;;;;19.17;17.17;;;14.90;99.90;;;;;;4359263;33;20184;-63
2021/09/14 07:13:05;;;;;;;22.93;17.53;;;15.00;99.90;;;;;;4360552;33;20159;-63
2021/09/14 07:15:34;;;;;;;20.70;18.57;;;15.00;99.90;;;;;;4360109;33;20548;-64
2021/09/14 07:18:01;;;;;;;20.73;17.03;;;15.10;99.90;;;;;;4359917;32;20145;-64
2021/09/14 07:20:30;;;;;;;19.50;17.50;;;15.10;99.90;;;;;;4359797;33;20203;-63
2021/09/14 07:22:59;;;;;;;23.47;17.43;;;15.20;99.90;;;;;;4360465;33;20688;-64
2021/09/14 07:25:26;;;;;;;22.43;19.20;;;15.20;99.90;;;;;;4360143;33;20224;-63
2021/09/14 07:27:57;;;;;;;25.30;20.30;;;15.40;99.90;;;;;;4361506;33;20148;-64
2021/09/14 07:30:32;;;;;;;19.90;17.80;;;15.40;99.90;;;;;;4359639;33;20247;-63
2021/09/14 07:33:01;;;;;;;21.33;18.63;;;15.60;99.90;;;;;;4359648;33;20140;-63
2021/09/14 07:35:35;;;;;;;21.63;19.50;;;15.70;99.90;;;;;;4349356;33;20553;-64
2021/09/14 07:38:02;;;;;;;22.27;19.93;;;15.90;99.90;;;;;;4343334;33;20531;-64
2021/09/14 07:40:30;;;;;;;21.20;19.13;;;16.20;99.90;;;;;;4345055;33;20213;-64
2021/09/14 07:42:57;;;;;;;21.33;19.27;;;16.40;99.90;;;;;;4345994;32;20492;-64
2021/09/14 07:45:28;;;;;;;22.43;20.13;;;16.60;99.90;;;;;;4344961;32;20179;-64
2021/09/14 07:47:56;;;;;;;20.53;18.53;;;16.80;99.90;;;;;;4345610;33;20149;-64
2021/09/14 07:50:23;;;;;;;23.53;21.20;;;16.80;99.90;;;;;;4363832;32;20155;-64
2021/09/14 07:52:51;;;;;;;28.27;24.40;;;16.80;99.90;;;;;;4423796;32;20151;-63
2021/09/14 07:55:18;;;;;;;23.77;21.47;;;17.00;99.90;;;;;;4423055;32;20606;-64
2021/09/14 07:57:45;;;;;;;25.33;22.63;;;17.00;99.90;;;;;;4423258;32;20163;-64
2021/09/14 08:00:13;;;;;;;25.10;22.53;;;17.20;99.90;;;;;;4421922;32;20173;-63
2021/09/14 08:02:41;;;;;;;23.87;21.63;;;17.40;99.90;;;;;;4422287;32;20600;-63
2021/09/14 08:05:09;;;;;;;25.30;23.20;;;17.70;99.90;;;;;;4422328;32;20167;-63
2021/09/14 08:07:36;;;;;;;28.20;24.23;;;17.90;99.90;;;;;;4423010;32;20143;-63
2021/09/14 08:10:03;;;;;;;27.80;24.77;;;18.10;99.90;;;;;;4421753;32;20140;-63
2021/09/14 08:12:30;;;;;;;26.53;24.13;;;18.40;99.90;;;;;;4421673;32;20147;-63
2021/09/14 08:14:57;;;;;;;30.57;27.90;;;18.70;99.90;;;;;;4421772;32;20162;-63
2021/09/14 08:17:23;;;;;;;29.93;27.43;;;18.80;99.90;;;;;;4421588;32;20147;-63
2021/09/14 08:19:52;;;;;;;33.80;30.93;;;19.20;99.90;;;;;;4421962;32;20170;-63
2021/09/14 08:22:22;;;;;;;33.57;30.63;;;19.90;99.90;;;;;;4422211;32;20469;-63
2021/09/14 08:24:49;;;;;;;32.10;29.30;;;22.10;99.90;;;;;;4422111;32;20204;-64
2021/09/14 08:27:15;;;;;;;30.83;28.57;;;26.50;98.80;;;;;;4422647;32;20158;-64
2021/09/14 08:29:42;;;;;;;27.10;24.90;;;31.10;92.30;;;;;;4421283;32;20143;-64
2021/09/14 08:32:09;;;;;;;26.98;24.55;;;34.20;75.40;;;;;;4421285;32;20161;-64
2021/09/14 08:34:36;;;;;;;24.55;22.70;;;33.00;71.40;;;;;;4407461;32;20183;-64
2021/09/14 08:37:10;;;;;;;25.42;23.62;;;29.70;77.20;;;;;;4421779;32;20460;-64
2021/09/14 08:39:37;;;;;;;28.10;26.20;;;26.90;84.70;;;;;;4421932;32;20136;-64
2021/09/14 08:42:04;;;;;;;30.57;28.23;;;24.90;90.90;;;;;;4421667;32;20154;-64
2021/09/14 08:44:31;;;;;;;36.67;34.17;;;23.70;94.30;;;;;;4421242;32;20166;-64
2021/09/14 08:47:00;;;;;;;35.27;32.83;;;23.00;97.20;;;;;;4422355;32;20737;-64
2021/09/14 08:49:27;;;;;;;37.37;34.77;;;22.80;98.30;;;;;;4422816;32;20159;-64
2021/09/14 08:51:55;;;;;;;41.40;38.57;;;22.60;98.70;;;;;;4421079;32;20170;-64
2021/09/14 08:54:24;;;;;;;42.63;40.03;;;22.20;99.90;;;;;;4421246;32;20570;-64
2021/09/14 08:56:53;;;;;;;42.70;39.80;;;21.90;99.90;;;;;;4421223;32;20135;-64
2021/09/14 08:59:28;;;;;;;43.77;40.87;;;21.70;99.90;;;;;;4420960;32;20151;-64
2021/09/14 09:01:59;;;;;;;42.53;39.87;;;21.20;99.90;;;;;;4422083;32;20154;-64
2021/09/14 09:04:29;;;;;;;47.50;44.00;;;21.00;99.90;;;;;;4420997;32;20144;-64
2021/09/14 09:06:56;;;;;;;47.83;44.80;;;21.10;99.90;;;;;;4416871;32;20233;-64
2021/09/14 09:09:29;;;;;;;43.93;41.23;;;21.10;99.90;;;;;;4406034;32;20143;-64
2021/09/14 09:12:02;;;;;;;44.33;41.30;;;21.00;99.90;;;;;;4405639;32;20222;-64
2021/09/14 09:14:49;;;;;;;44.90;41.93;;;21.00;99.90;;;;;;4403009;32;20191;-64
2021/09/14 09:17:26;;;;;;;42.97;39.87;;;20.80;99.90;;;;;;4403291;32;20556;-64
2021/09/14 09:19:57;;;;;;;44.07;41.10;;;20.90;99.90;;;;;;4408971;32;20626;-64
2021/09/14 09:22:30;;;;;;;42.50;39.63;;;20.80;99.90;;;;;;4406268;32;20186;-64
2021/09/14 09:24:58;;;;;;;45.73;42.40;;;20.70;99.90;;;;;;4401195;32;20269;-63
2021/09/14 09:27:31;;;;;;;46.60;43.70;;;20.50;99.90;;;;;;4408523;32;20205;-65
2021/09/14 09:29:59;;;;;;;46.37;43.37;;;20.50;99.90;;;;;;4407093;32;20147;-66
2021/09/14 09:32:33;;;;;;;44.00;41.23;;;20.70;99.90;;;;;;4422378;32;20151;-65
2021/09/14 09:35:04;;;;;;;46.00;43.13;;;20.90;99.90;;;;;;4422347;32;20158;-64
2021/09/14 09:37:31;;;;;;;45.00;42.17;;;21.00;99.90;;;;;;4420756;32;20551;-65
2021/09/14 09:39:59;;;;;;;45.77;42.90;;;21.00;99.90;;;;;;4420702;32;20595;-66
2021/09/14 09:42:31;;;;;;;43.47;40.77;;;21.00;99.90;;;;;;4421757;32;20143;-65
2021/09/14 09:45:07;;;;;;;44.13;41.33;;;21.00;99.90;;;;;;4421657;32;20139;-65
2021/09/14 09:47:34;;;;;;;46.37;43.27;;;21.10;99.90;;;;;;4420668;32;20135;-69
2021/09/14 09:50:01;;;;;;;46.93;43.97;;;21.20;99.90;;;;;;4420420;32;20135;-65
2021/09/14 09:52:29;;;;;;;43.13;40.53;;;21.10;99.90;;;;;;4420566;32;20150;-67
2021/09/14 09:54:57;;;;;;;49.23;46.17;;;21.10;99.90;;;;;;4421466;32;20135;-67
2021/09/14 09:57:26;;;;;;;45.87;42.97;;;21.10;99.90;;;;;;4420757;32;20219;-64
2021/09/14 09:59:56;;;;;;;43.30;40.63;;;21.20;99.90;;;;;;4422195;32;20668;-65
2021/09/14 10:02:26;;;;;;;45.83;42.87;;;21.10;99.90;;;;;;4420333;32;20528;-63
2021/09/14 10:05:00;;;;;;;46.07;42.93;;;21.10;99.90;;;;;;4420491;32;20132;-65
2021/09/14 10:07:30;;;;;;;48.33;45.27;;;21.20;99.90;;;;;;4420856;32;20143;-66
2021/09/14 10:10:01;;;;;;;48.40;45.43;;;21.30;99.90;;;;;;4420665;32;20628;-66
2021/09/14 10:12:31;;;;;;;44.20;41.20;;;21.40;99.90;;;;;;4420533;32;20135;-66
2021/09/14 10:15:05;;;;;;;44.13;41.33;;;21.60;99.90;;;;;;4420507;32;20162;-67
2021/09/14 10:17:51;;;;;;;44.00;41.23;;;21.70;99.90;;;;;;4420522;32;20143;-67
2021/09/14 10:20:21;;;;;;;45.03;42.30;;;21.70;99.90;;;;;;4421490;32;20143;-67
2021/09/14 10:22:59;;;;;;;45.37;42.43;;;21.80;99.90;;;;;;4421377;32;20478;-64
2021/09/14 10:25:26;;;;;;;46.50;43.47;;;22.00;99.90;;;;;;4422120;32;20153;-64
2021/09/14 10:28:05;;;;;;;42.70;39.80;;;22.10;99.90;;;;;;4422017;32;20476;-67
2021/09/14 10:30:33;;;;;;;42.30;39.57;;;22.20;99.90;;;;;;4423290;32;20139;-68
2021/09/14 10:33:01;;;;;;;42.33;39.57;;;22.40;99.90;;;;;;4423378;32;20143;-66
2021/09/14 10:35:33;;;;;;;40.97;38.57;;;22.60;99.90;;;;;;4423091;32;20162;-66
2021/09/14 10:38:09;;;;;;;38.27;35.80;;;22.70;99.90;;;;;;4424716;32;20140;-66
2021/09/14 10:40:44;;;;;;;38.53;35.93;;;22.80;99.90;;;;;;4423763;32;20577;-64
2021/09/14 10:43:24;;;;;;;38.97;36.53;;;22.80;99.90;;;;;;4423031;32;20157;-65
2021/09/14 10:45:52;;;;;;;42.50;39.67;;;22.70;99.90;;;;;;4422992;32;20139;-66
2021/09/14 10:48:24;;;;;;;40.60;37.97;;;22.50;99.90;;;;;;4424162;32;20170;-66
2021/09/14 10:50:51;;;;;;;39.70;37.20;;;22.50;99.90;;;;;;4422105;32;20156;-65
2021/09/14 10:53:30;;;;;;;39.30;36.80;;;22.60;99.90;;;;;;4422577;32;20176;-67
2021/09/14 10:56:03;;;;;;;39.30;36.87;;;22.50;99.90;;;;;;4424377;32;20143;-69
2021/09/14 10:58:42;;;;;;;39.03;36.37;;;22.40;99.90;;;;;;4423966;32;20175;-68
2021/09/14 11:01:09;;;;;;;44.07;41.57;;;22.40;99.90;;;;;;4423082;32;20135;-66
2021/09/14 11:03:36;;;;;;;43.90;41.03;;;22.50;99.90;;;;;;4422538;32;20177;-66
2021/09/14 11:06:08;;;;;;;45.40;42.37;;;22.70;99.90;;;;;;4424573;32;20144;-66
2021/09/14 11:08:35;;;;;;;44.50;41.60;;;22.70;99.90;;;;;;4423030;32;20159;-65
2021/09/14 11:11:03;;;;;;;42.47;39.73;;;22.50;99.90;;;;;;4422625;32;20140;-65
2021/09/14 11:13:32;;;;;;;40.17;37.47;;;22.40;99.90;;;;;;4422745;32;20187;-67
2021/09/14 11:16:02;;;;;;;42.70;40.00;;;22.50;99.90;;;;;;4422719;32;20135;-66
2021/09/14 11:18:30;;;;;;;41.97;39.47;;;22.60;99.90;;;;;;4422687;32;20135;-66
2021/09/14 11:21:04;;;;;;;42.47;39.97;;;23.00;99.90;;;;;;4422584;32;20155;-65
2021/09/14 11:23:31;;;;;;;37.33;34.95;;;23.40;99.90;;;;;;4422464;32;20139;-65
2021/09/14 11:25:59;;;;;;;39.03;36.22;;;23.50;99.90;;;;;;4422895;32;20245;-66
2021/09/14 11:28:26;;;;;;;43.28;40.47;;;23.70;99.90;;;;;;4421824;32;20575;-65
2021/09/14 11:30:56;;;;;;;38.17;35.47;;;23.70;99.90;;;;;;4421962;32;20222;-67
2021/09/14 11:33:26;;;;;;;36.67;34.42;;;23.80;99.90;;;;;;4422530;32;20561;-66
2021/09/14 11:35:53;;;;;;;34.42;31.95;;;23.80;99.90;;;;;;4422342;32;20169;-66
2021/09/14 11:38:21;;;;;;;36.03;33.53;;;23.60;99.90;;;;;;4421909;32;20183;-66
2021/09/14 11:40:53;;;;;;;38.83;36.30;;;23.50;99.90;;;;;;4423383;32;20143;-66
2021/09/14 11:43:22;;;;;;;35.17;32.97;;;23.60;99.90;;;;;;4422040;32;20193;-66
2021/09/14 11:45:50;;;;;;;34.47;32.15;;;23.60;99.90;;;;;;4423575;32;20152;-66
2021/09/14 11:48:20;;;;;;;35.78;33.28;;;23.70;99.90;;;;;;4422097;32;20182;-66
2021/09/14 11:50:50;;;;;;;36.17;33.92;;;23.60;99.90;;;;;;4341154;32;2397635;-66
2021/09/14 11:53:18;;;;;;;35.85;33.65;;;23.50;99.90;;;;;;4408732;32;20583;-65
2021/09/14 11:55:47;;;;;;;34.87;32.73;;;23.60;99.90;;;;;;4406886;32;20174;-66
2021/09/14 11:58:15;;;;;;;32.42;30.05;;;23.70;99.90;;;;;;4406965;32;20178;-66
2021/09/14 12:00:45;;;;;;;35.33;33.13;;;23.50;99.90;;;;;;4406839;32;20148;-65
2021/09/14 12:03:17;;;;;;;35.13;33.05;;;23.50;99.90;;;;;;4408267;32;20630;-69
2021/09/14 12:05:56;;;;;;;31.87;30.10;;;23.50;99.90;;;;;;4414333;32;20217;-65
2021/09/14 12:08:30;;;;;;;33.38;31.37;;;23.50;99.90;;;;;;4414078;32;20175;-66
2021/09/14 12:11:00;;;;;;;33.50;31.35;;;23.50;99.90;;;;;;4412696;32;20194;-66
2021/09/14 12:13:27;;;;;;;34.03;32.03;;;23.40;99.90;;;;;;4413245;32;20208;-66
2021/09/14 12:16:08;;;;;;;34.20;32.13;;;23.30;99.70;;;;;;4413547;32;20156;-66
2021/09/14 12:18:37;;;;;;;31.12;29.27;;;23.40;99.90;;;;;;4411686;32;20235;-66
2021/09/14 12:21:08;;;;;;;34.63;32.63;;;23.60;99.90;;;;;;4412475;32;20155;-65
2021/09/14 12:23:35;;;;;;;29.57;27.97;;;23.80;99.90;;;;;;4413135;32;20182;-68
2021/09/14 12:26:02;;;;;;;29.35;27.48;;;23.80;99.60;;;;;;4412873;32;20170;-67
2021/09/14 12:28:29;;;;;;;32.75;30.67;;;23.90;99.50;;;;;;4413900;32;20190;-66
2021/09/14 12:30:56;;;;;;;28.60;27.05;;;23.80;99.60;;;;;;4413310;32;20191;-65
2021/09/14 12:33:31;;;;;;;32.78;30.92;;;23.80;99.80;;;;;;4414168;32;20187;-68
2021/09/14 12:36:01;;;;;;;33.47;31.58;;;23.70;99.90;;;;;;4412113;32;20213;-65
2021/09/14 12:38:31;;;;;;;30.70;28.92;;;23.70;99.90;;;;;;4412356;32;20160;-66
2021/09/14 12:40:58;;;;;;;31.00;29.23;;;23.70;99.70;;;;;;4414088;32;20178;-67
2021/09/14 12:43:30;;;;;;;33.00;31.00;;;23.60;98.70;;;;;;4413107;32;20178;-64
2021/09/14 12:46:04;;;;;;;32.35;30.42;;;23.60;99.60;;;;;;4414854;32;20584;-66
2021/09/14 12:48:34;;;;;;;32.53;30.73;;;23.70;99.70;;;;;;4412646;32;20492;-69
2021/09/14 12:51:07;;;;;;;32.88;31.08;;;23.70;99.10;;;;;;4404705;32;20168;-65
2021/09/14 12:53:36;;;;;;;32.20;30.40;;;23.80;99.40;;;;;;4406225;32;20182;-69
2021/09/14 12:56:03;;;;;;;29.85;28.02;;;23.90;99.10;;;;;;4414483;32;20159;-67
2021/09/14 12:58:35;;;;;;;32.55;30.73;;;23.90;98.70;;;;;;4398588;32;20172;-68
2021/09/14 13:01:02;;;;;;;31.55;29.75;;;24.10;99.20;;;;;;4403739;32;20166;-66
2021/09/14 13:03:29;;;;;;;31.50;29.67;;;24.20;99.30;;;;;;4405888;32;20169;-68
2021/09/14 13:05:57;;;;;;;34.20;32.00;;;24.30;98.90;;;;;;4405854;32;20166;-66
2021/09/14 13:08:24;;;;;;;32.50;30.58;;;24.30;99.00;;;;;;4407604;32;20206;-66
2021/09/14 13:10:56;;;;;;;31.60;29.92;;;24.30;98.90;;;;;;4397030;32;20198;-64
2021/09/14 13:16:14;;;;;;;30.58;28.52;;;24.50;99.30;;;;;;4391018;32;20476;-66
2021/09/14 13:18:47;;;;;;;32.72;30.85;;;24.60;98.90;;;;;;4390342;32;20195;-66
2021/09/14 13:21:18;;;;;;;30.40;28.90;;;24.50;98.90;;;;;;4390549;32;20144;-66
2021/09/14 13:23:47;;;;;;;33.45;31.33;;;24.60;99.30;;;;;;4391722;32;20164;-63
2021/09/14 13:26:24;;;;;;;33.63;31.62;;;24.60;98.90;;;;;;4390390;32;20144;-66